Time;durP1;ratioP1;P1;durP2;ratioP2;P2;SDS_P1;SDS_P2;PMS_P1;PMS_P2;Temp;Humidity;BMP_temperature;BMP_pressure;BME280_temperature;BME280_humidity;BME280_pressure;Samples;Min_cycle;Max_cycle;Signal;HPM_P1;HPM_P2
2023/07/05 00:00:54;;;;;;;2.70;2.50;;;23.00;30.00;;;;;;10411466;28;20648;-79
2023/07/05 00:06:04;;;;;;;2.10;2.00;;;22.90;29.70;;;;;;10410190;28;20265;-78
2023/07/05 00:11:11;;;;;;;2.20;2.07;;;22.80;30.40;;;;;;10410199;28;20766;-78
2023/07/05 00:16:14;;;;;;;2.43;2.23;;;22.60;30.90;;;;;;10411328;28;20237;-78
2023/07/05 00:21:18;;;;;;;2.77;2.50;;;22.50;30.40;;;;;;10410645;28;20773;-79
2023/07/05 00:26:25;;;;;;;2.90;2.50;;;22.40;30.20;;;;;;10411005;28;22553;-78
2023/07/05 00:31:28;;;;;;;2.50;2.30;;;22.30;30.60;;;;;;10408893;28;20252;-79
2023/07/05 00:36:31;;;;;;;2.40;2.20;;;22.30;30.30;;;;;;10412620;28;20270;-79
2023/07/05 00:41:36;;;;;;;2.60;2.40;;;22.20;30.40;;;;;;10409642;28;20289;-79
2023/07/05 00:46:45;;;;;;;2.30;2.10;;;22.20;30.90;;;;;;10410509;28;20234;-78
2023/07/05 00:51:55;;;;;;;2.50;2.30;;;22.10;31.00;;;;;;10405078;28;20308;-79
2023/07/05 00:57:06;;;;;;;2.20;2.00;;;22.10;31.70;;;;;;10405483;28;20312;-78
2023/07/05 01:02:09;;;;;;;2.37;2.17;;;22.00;31.50;;;;;;10407533;28;20288;-79
2023/07/05 01:07:12;;;;;;;2.00;1.70;;;21.90;30.80;;;;;;10413906;28;20234;-77
2023/07/05 01:12:25;;;;;;;2.67;1.90;;;21.90;30.90;;;;;;10417601;28;20309;-78
2023/07/05 01:17:43;;;;;;;2.10;2.00;;;21.60;32.20;;;;;;10407860;28;20234;-78
2023/07/05 01:23:24;;;;;;;2.10;1.90;;;21.40;32.60;;;;;;10415847;28;20221;-78
2023/07/05 01:28:43;;;;;;;2.03;1.70;;;21.30;32.80;;;;;;10358809;28;20226;-78
2023/07/05 01:33:55;;;;;;;3.93;2.00;;;21.10;33.80;;;;;;10410709;28;20229;-77
2023/07/05 01:38:59;;;;;;;3.03;1.70;;;21.00;34.50;;;;;;10421416;28;20277;-78
2023/07/05 01:44:03;;;;;;;1.60;1.50;;;20.90;33.10;;;;;;10413718;28;20313;-78
2023/07/05 01:49:19;;;;;;;1.73;1.63;;;20.90;33.40;;;;;;10416461;28;20237;-78
2023/07/05 01:54:37;;;;;;;1.47;1.37;;;20.90;35.20;;;;;;10428045;28;20297;-82
2023/07/05 01:59:48;;;;;;;2.03;1.80;;;20.90;35.50;;;;;;10412607;28;20279;-83
2023/07/05 02:04:54;;;;;;;1.67;1.50;;;20.90;35.40;;;;;;10416841;28;20252;-83
2023/07/05 02:09:57;;;;;;;1.70;1.60;;;20.90;34.90;;;;;;10422575;28;20222;-83
2023/07/05 02:15:00;;;;;;;1.77;1.67;;;21.00;33.90;;;;;;10415750;28;20812;-83
2023/07/05 02:20:06;;;;;;;2.00;1.80;;;21.10;33.90;;;;;;10423125;28;20293;-83
2023/07/05 02:25:10;;;;;;;2.80;1.80;;;21.20;34.60;;;;;;10414775;28;20245;-84
2023/07/05 02:30:15;;;;;;;2.03;1.60;;;21.30;34.10;;;;;;10421087;28;20230;-83
2023/07/05 02:35:20;;;;;;;1.80;1.67;;;21.40;34.70;;;;;;10411332;28;20225;-84
2023/07/05 02:40:25;;;;;;;1.80;1.70;;;21.50;34.40;;;;;;10421864;28;20237;-83
2023/07/05 02:45:28;;;;;;;1.90;1.80;;;21.60;34.80;;;;;;10414409;28;20230;-83
2023/07/05 02:50:33;;;;;;;2.30;2.10;;;21.50;34.00;;;;;;10420912;28;20245;-83
2023/07/05 02:55:36;;;;;;;2.50;2.10;;;21.50;34.60;;;;;;10418422;28;20324;-83
2023/07/05 03:00:39;;;;;;;2.30;2.10;;;21.40;34.00;;;;;;10422424;28;20259;-83
2023/07/05 03:05:53;;;;;;;2.30;1.93;;;21.40;34.10;;;;;;10418033;28;20304;-83
2023/07/05 03:10:58;;;;;;;1.90;1.80;;;21.40;34.60;;;;;;10414656;28;20232;-83
2023/07/05 03:16:02;;;;;;;2.90;1.80;;;21.40;34.10;;;;;;10416907;28;20313;-83
2023/07/05 03:21:06;;;;;;;2.43;2.23;;;21.30;33.90;;;;;;10418019;28;20299;-83
2023/07/05 03:26:11;;;;;;;2.50;2.00;;;21.20;34.60;;;;;;10417986;28;20233;-83
2023/07/05 03:31:17;;;;;;;3.53;2.27;;;21.10;34.30;;;;;;10417874;28;20384;-83
2023/07/05 03:36:23;;;;;;;2.00;1.90;;;21.00;35.30;;;;;;10417725;28;20772;-83
2023/07/05 03:41:26;;;;;;;2.30;2.10;;;20.80;35.10;;;;;;10415855;28;20682;-83
2023/07/05 03:46:32;;;;;;;2.53;2.33;;;20.70;34.70;;;;;;10414458;28;20316;-83
2023/07/05 03:51:37;;;;;;;2.90;2.20;;;20.70;35.70;;;;;;10418588;28;20260;-82
2023/07/05 03:56:43;;;;;;;2.23;1.80;;;20.70;35.40;;;;;;10416847;28;20280;-82
2023/07/05 04:01:46;;;;;;;2.33;1.87;;;20.60;35.00;;;;;;10403915;28;20316;-84
2023/07/05 04:06:55;;;;;;;2.10;2.00;;;20.50;35.10;;;;;;10409188;28;20235;-83
2023/07/05 04:12:04;;;;;;;3.60;1.70;;;20.50;35.70;;;;;;10412432;28;20739;-83
2023/07/05 04:17:08;;;;;;;1.90;1.80;;;20.40;35.60;;;;;;10415042;28;20233;-83
2023/07/05 04:22:13;;;;;;;2.10;1.90;;;20.40;35.30;;;;;;10413499;28;20221;-83
2023/07/05 04:27:17;;;;;;;2.07;1.93;;;20.50;35.90;;;;;;10414630;28;20886;-82
2023/07/05 04:32:20;;;;;;;2.10;1.90;;;20.40;35.50;;;;;;10418051;28;20242;-82
2023/07/05 04:37:25;;;;;;;3.03;2.07;;;20.50;35.90;;;;;;10409975;28;20233;-83
2023/07/05 04:42:35;;;;;;;2.30;2.10;;;20.50;36.90;;;;;;10412837;28;20229;-83
2023/07/05 04:47:39;;;;;;;2.27;1.93;;;20.60;36.10;;;;;;10414402;28;20259;-83
2023/07/05 04:52:44;;;;;;;3.43;2.10;;;20.50;36.20;;;;;;10414075;28;20225;-83
2023/07/05 04:57:47;;;;;;;4.80;2.10;;;20.50;36.90;;;;;;10413212;28;20682;-82
2023/07/05 05:02:50;;;;;;;1.60;1.50;;;20.50;36.80;;;;;;10417193;28;20221;-83
2023/07/05 05:07:55;;;;;;;2.23;1.90;;;20.60;37.00;;;;;;10418830;28;20279;-84
2023/07/05 05:12:58;;;;;;;2.73;2.10;;;20.60;37.00;;;;;;10416783;28;20324;-82
2023/07/05 05:18:01;;;;;;;1.80;1.70;;;20.60;37.00;;;;;;10418664;28;20252;-82
2023/07/05 05:23:06;;;;;;;1.97;1.77;;;20.70;37.20;;;;;;10407592;28;20253;-80
2023/07/05 05:28:12;;;;;;;1.90;1.77;;;20.70;37.50;;;;;;10409768;28;20301;-82
2023/07/05 05:33:17;;;;;;;2.60;1.87;;;20.70;37.80;;;;;;10411344;28;20225;-81
2023/07/05 05:38:21;;;;;;;2.20;2.00;;;20.80;37.20;;;;;;10409426;28;20224;-83
2023/07/05 05:43:24;;;;;;;3.77;1.83;;;20.80;38.00;;;;;;10413608;28;20264;-79
2023/07/05 05:48:28;;;;;;;1.57;1.47;;;20.80;37.30;;;;;;10402742;28;20239;-79
2023/07/05 05:53:33;;;;;;;1.70;1.60;;;20.80;37.20;;;;;;10399909;28;21308;-79
2023/07/05 05:58:36;;;;;;;1.90;1.73;;;20.80;38.20;;;;;;10395048;28;20291;-77
2023/07/05 06:03:40;;;;;;;1.90;1.30;;;20.80;38.10;;;;;;10402946;28;20237;-78
2023/07/05 06:08:44;;;;;;;1.70;1.20;;;20.80;37.50;;;;;;10390916;28;20222;-78
2023/07/05 06:13:48;;;;;;;1.27;0.90;;;20.60;38.00;;;;;;10385126;28;20234;-78
2023/07/05 06:18:51;;;;;;;3.23;1.17;;;20.50;37.70;;;;;;10386145;28;20229;-75
2023/07/05 06:23:56;;;;;;;1.83;1.23;;;20.60;37.90;;;;;;10386903;28;20249;-80
2023/07/05 06:28:59;;;;;;;1.57;1.10;;;20.50;38.80;;;;;;10379864;28;20256;-78
2023/07/05 06:34:03;;;;;;;1.53;1.00;;;20.50;38.10;;;;;;10386342;28;20292;-78
2023/07/05 06:39:07;;;;;;;1.77;1.40;;;20.60;38.30;;;;;;10389854;28;20230;-78
2023/07/05 06:44:11;;;;;;;1.33;1.20;;;20.60;39.10;;;;;;10392441;28;20233;-78
2023/07/05 06:49:14;;;;;;;1.20;0.93;;;20.70;38.50;;;;;;10388512;28;20234;-76
2023/07/05 06:54:19;;;;;;;0.90;0.90;;;20.80;38.80;;;;;;10379952;28;20225;-79
2023/07/05 06:59:22;;;;;;;2.13;1.10;;;20.80;39.30;;;;;;10377776;28;20233;-79
2023/07/05 07:04:25;;;;;;;1.30;1.20;;;20.80;38.50;;;;;;10376258;28;20238;-78
2023/07/05 07:09:30;;;;;;;2.20;1.00;;;20.80;39.30;;;;;;10383048;28;20268;-78
2023/07/05 07:14:34;;;;;;;1.07;1.03;;;20.90;39.40;;;;;;10395534;28;20236;-78
2023/07/05 07:19:37;;;;;;;1.10;1.10;;;21.00;39.40;;;;;;10389716;28;20276;-78
2023/07/05 07:24:42;;;;;;;1.30;1.20;;;21.10;39.40;;;;;;10388988;28;20235;-78
2023/07/05 07:29:46;;;;;;;1.40;1.03;;;21.20;39.80;;;;;;10384654;28;20225;-77
2023/07/05 07:34:52;;;;;;;1.10;1.00;;;21.30;39.60;;;;;;10391410;28;20312;-76
2023/07/05 07:39:57;;;;;;;1.87;1.30;;;21.30;41.00;;;;;;10397637;28;21004;-77
2023/07/05 07:45:01;;;;;;;1.73;1.10;;;21.40;41.00;;;;;;10393654;28;20241;-76
2023/07/05 07:50:04;;;;;;;2.60;1.20;;;21.50;40.80;;;;;;10391787;28;20234;-77
2023/07/05 07:55:10;;;;;;;1.40;1.20;;;21.50;40.30;;;;;;10395753;28;20261;-76
2023/07/05 08:00:14;;;;;;;2.97;1.57;;;21.60;41.10;;;;;;10396967;28;20218;-76
2023/07/05 08:05:18;;;;;;;1.67;1.10;;;21.60;40.50;;;;;;10395940;28;20613;-76
2023/07/05 08:10:22;;;;;;;1.30;1.13;;;21.70;40.70;;;;;;10391701;28;22467;-77
2023/07/05 08:15:26;;;;;;;2.03;1.10;;;21.80;41.00;;;;;;10391968;28;20328;-76
2023/07/05 08:20:30;;;;;;;1.80;1.30;;;21.80;41.10;;;;;;10397934;28;21309;-76
2023/07/05 08:25:37;;;;;;;1.60;0.93;;;21.90;41.10;;;;;;10398886;28;20283;-77
2023/07/05 08:30:41;;;;;;;1.97;1.27;;;22.10;41.80;;;;;;10400056;28;20784;-76
2023/07/05 08:35:44;;;;;;;1.80;1.23;;;22.40;41.70;;;;;;10400302;28;20272;-76
2023/07/05 08:40:55;;;;;;;1.70;1.27;;;22.60;41.60;;;;;;10382641;28;20221;-77
2023/07/05 08:46:04;;;;;;;1.53;1.43;;;22.90;42.40;;;;;;10390684;28;20233;-76
2023/07/05 08:51:12;;;;;;;1.60;1.50;;;23.20;41.50;;;;;;10398525;28;20959;-76
2023/07/05 08:56:24;;;;;;;1.70;1.53;;;23.30;41.10;;;;;;10401098;28;20240;-77
2023/07/05 09:01:31;;;;;;;2.73;1.80;;;23.40;41.30;;;;;;10399190;28;20322;-77
2023/07/05 09:06:42;;;;;;;2.10;1.77;;;23.50;41.80;;;;;;10402003;28;20225;-77
2023/07/05 09:12:00;;;;;;;2.77;2.27;;;23.70;41.50;;;;;;10396368;28;20585;-76
2023/07/05 09:17:08;;;;;;;2.43;2.27;;;23.90;41.20;;;;;;10397642;28;20309;-76
2023/07/05 09:22:15;;;;;;;2.80;2.50;;;24.10;40.90;;;;;;10397648;28;20222;-76
2023/07/05 09:27:23;;;;;;;2.90;2.53;;;24.30;40.30;;;;;;10401052;28;20702;-74
2023/07/05 09:32:31;;;;;;;2.83;2.10;;;24.60;40.50;;;;;;10405701;28;20724;-76
2023/07/05 09:37:36;;;;;;;2.90;2.23;;;24.70;40.60;;;;;;10410426;28;20287;-74
2023/07/05 09:42:46;;;;;;;3.93;2.70;;;24.80;40.70;;;;;;10407464;28;20233;-75
2023/07/05 09:47:53;;;;;;;2.43;2.23;;;25.00;40.90;;;;;;10401273;28;20705;-77
2023/07/05 09:53:01;;;;;;;2.77;2.47;;;25.20;40.60;;;;;;10406518;28;20250;-77
2023/07/05 09:58:14;;;;;;;3.27;2.23;;;25.40;39.10;;;;;;10405040;28;20736;-76
2023/07/05 10:03:21;;;;;;;4.67;2.73;;;25.50;39.10;;;;;;10405423;28;20320;-77
2023/07/05 10:08:25;;;;;;;4.60;2.50;;;25.60;38.30;;;;;;10402463;28;20260;-77
2023/07/05 10:13:31;;;;;;;3.10;2.80;;;25.60;38.20;;;;;;10405429;28;20324;-77
2023/07/05 10:18:36;;;;;;;3.00;2.67;;;25.50;38.80;;;;;;10403572;28;20279;-76
2023/07/05 10:23:39;;;;;;;3.00;2.80;;;25.50;38.60;;;;;;10403304;28;20225;-77
2023/07/05 10:28:45;;;;;;;2.60;2.40;;;25.40;38.60;;;;;;10403395;28;20313;-76
2023/07/05 10:33:49;;;;;;;3.87;2.40;;;25.40;38.70;;;;;;10388835;28;20232;-77
2023/07/05 10:38:52;;;;;;;1.57;1.30;;;25.40;38.70;;;;;;10401220;28;20352;-75
2023/07/05 10:44:02;;;;;;;1.33;1.10;;;25.30;35.10;;;;;;10406510;28;20221;-75
2023/07/05 10:49:10;;;;;;;1.13;1.00;;;25.00;34.30;;;;;;10403202;28;20279;-76
2023/07/05 10:54:22;;;;;;;1.20;0.90;;;24.60;34.60;;;;;;10407278;28;20253;-75
2023/07/05 10:59:35;;;;;;;1.43;1.13;;;24.20;34.70;;;;;;10398327;28;20229;-76
2023/07/05 11:04:44;;;;;;;4.50;1.77;;;23.90;35.70;;;;;;10403057;28;20607;-76
2023/07/05 11:09:47;;;;;;;1.47;1.20;;;23.60;36.20;;;;;;10400124;28;20768;-76
2023/07/05 11:14:53;;;;;;;5.30;1.87;;;23.30;36.50;;;;;;10399282;28;20308;-76
2023/07/05 11:19:56;;;;;;;7.50;2.47;;;23.20;37.60;;;;;;10403107;28;20730;-76
2023/07/05 11:24:59;;;;;;;19.73;3.00;;;23.10;37.80;;;;;;10398234;28;20234;-75
2023/07/05 11:30:35;;;;;;;2.77;1.47;;;23.10;38.30;;;;;;10398989;28;20335;-74
2023/07/05 11:35:46;;;;;;;1.37;1.20;;;23.20;38.30;;;;;;10390784;28;20236;-76
2023/07/05 11:41:04;;;;;;;1.33;1.33;;;23.30;38.00;;;;;;10398930;28;20268;-76
2023/07/05 11:46:37;;;;;;;1.53;1.30;;;23.40;38.90;;;;;;10396808;28;20232;-76
2023/07/05 11:51:40;;;;;;;0.97;0.97;;;23.60;37.80;;;;;;10399077;28;20285;-76
2023/07/05 11:56:45;;;;;;;1.47;1.37;;;23.80;37.70;;;;;;10401524;28;20260;-76
2023/07/05 12:01:51;;;;;;;5.77;1.77;;;23.90;37.50;;;;;;10395553;28;20225;-76
2023/07/05 12:06:55;;;;;;;1.77;1.67;;;24.00;37.50;;;;;;10397629;28;20253;-76
2023/07/05 12:11:58;;;;;;;1.73;1.50;;;24.10;37.40;;;;;;10397886;28;20272;-76
2023/07/05 12:17:03;;;;;;;3.00;1.47;;;24.20;37.60;;;;;;10397474;28;20237;-76
2023/07/05 12:22:25;;;;;;;1.97;1.43;;;24.20;37.60;;;;;;10396371;28;20259;-76
2023/07/05 12:27:31;;;;;;;21.73;3.50;;;24.30;37.10;;;;;;10400194;28;20225;-76
2023/07/05 12:32:36;;;;;;;6.77;2.20;;;24.30;37.30;;;;;;10400164;28;20299;-77
2023/07/05 12:37:39;;;;;;;72.23;9.03;;;24.50;37.50;;;;;;10399530;28;20772;-76
2023/07/05 12:42:50;;;;;;;1.57;1.40;;;24.60;37.00;;;;;;10401468;28;20312;-76
2023/07/05 12:47:55;;;;;;;1.43;1.30;;;24.70;36.40;;;;;;10398917;28;20236;-76
2023/07/05 12:53:01;;;;;;;2.40;1.40;;;24.90;36.30;;;;;;10399226;28;20229;-76
2023/07/05 12:58:07;;;;;;;1.50;1.40;;;24.90;35.90;;;;;;10402067;28;20667;-75
2023/07/05 13:03:17;;;;;;;1.47;1.37;;;25.10;36.20;;;;;;10405139;28;20710;-76
2023/07/05 13:08:21;;;;;;;1.37;1.27;;;25.10;34.90;;;;;;10407207;28;20245;-76
2023/07/05 13:13:29;;;;;;;1.30;1.20;;;25.20;35.40;;;;;;10403648;28;20235;-77
2023/07/05 13:18:34;;;;;;;1.40;1.30;;;25.20;35.30;;;;;;10404709;28;20237;-76
2023/07/05 13:23:43;;;;;;;1.60;1.50;;;25.30;35.20;;;;;;10403954;28;20233;-75
2023/07/05 13:28:47;;;;;;;1.63;1.53;;;25.40;34.20;;;;;;10404222;28;20225;-76
2023/07/05 13:33:55;;;;;;;1.50;1.40;;;25.50;34.60;;;;;;10402519;28;20233;-77
2023/07/05 13:38:59;;;;;;;1.67;1.43;;;25.50;33.90;;;;;;10402222;28;20723;-77
2023/07/05 13:44:02;;;;;;;4.53;1.50;;;25.50;34.40;;;;;;10401476;28;20238;-76
2023/07/05 13:49:09;;;;;;;1.80;1.70;;;25.60;33.60;;;;;;10406359;28;20253;-76
2023/07/05 13:54:13;;;;;;;1.87;1.60;;;25.70;32.90;;;;;;10404667;28;20303;-77
2023/07/05 13:59:19;;;;;;;1.83;1.73;;;25.70;32.80;;;;;;10403148;28;20223;-76
2023/07/05 14:04:23;;;;;;;2.07;1.80;;;25.80;31.60;;;;;;10403551;28;20320;-76
2023/07/05 14:09:27;;;;;;;2.30;2.10;;;25.80;30.50;;;;;;10404254;28;20756;-76
2023/07/05 14:14:30;;;;;;;2.13;2.03;;;26.00;31.30;;;;;;10405519;28;20597;-76
2023/07/05 14:19:34;;;;;;;2.10;2.00;;;26.00;31.50;;;;;;10405206;28;20245;-76
2023/07/05 14:24:38;;;;;;;2.40;2.20;;;26.10;29.80;;;;;;10403000;28;20329;-76
2023/07/05 14:29:41;;;;;;;3.00;2.00;;;26.30;30.80;;;;;;10404980;28;20313;-77
2023/07/05 14:34:46;;;;;;;1.80;1.70;;;26.40;30.00;;;;;;10400834;28;20909;-78
2023/07/05 14:39:49;;;;;;;1.83;1.73;;;26.60;29.50;;;;;;10404263;28;20225;-78
2023/07/05 14:44:52;;;;;;;2.13;2.03;;;26.60;29.50;;;;;;10403261;28;20248;-77
2023/07/05 14:49:57;;;;;;;1.90;1.80;;;26.60;29.50;;;;;;10400503;28;20221;-78
2023/07/05 14:55:01;;;;;;;2.47;2.27;;;26.60;28.60;;;;;;10383168;28;20316;-77
2023/07/05 15:00:05;;;;;;;1.70;1.60;;;26.60;29.50;;;;;;10385878;28;21479;-78
2023/07/05 15:05:11;;;;;;;1.93;1.83;;;26.60;28.70;;;;;;10380616;28;20325;-75
2023/07/05 15:10:15;;;;;;;1.90;1.80;;;26.60;28.10;;;;;;10379303;28;20236;-79
2023/07/05 15:15:22;;;;;;;2.10;2.00;;;26.60;28.80;;;;;;10380913;28;20317;-77
2023/07/05 15:20:27;;;;;;;2.13;1.93;;;26.70;27.80;;;;;;10383038;28;20312;-77
2023/07/05 15:25:30;;;;;;;2.10;1.90;;;26.70;27.80;;;;;;10385220;28;20303;-79
2023/07/05 15:30:34;;;;;;;2.17;2.03;;;26.80;28.10;;;;;;10380661;28;20331;-77
2023/07/05 15:35:40;;;;;;;1.80;1.70;;;26.90;27.70;;;;;;10385486;28;20333;-77
2023/07/05 15:40:44;;;;;;;2.00;1.90;;;27.00;27.20;;;;;;10382272;28;20230;-77
2023/07/05 15:45:48;;;;;;;1.73;1.63;;;27.10;27.70;;;;;;10380739;28;20226;-75
2023/07/05 15:50:54;;;;;;;2.17;2.07;;;27.10;27.00;;;;;;10372886;28;20239;-74
2023/07/05 15:55:58;;;;;;;6.13;2.33;;;27.20;26.40;;;;;;10377497;28;20316;-75
2023/07/05 16:01:10;;;;;;;1.60;1.50;;;27.20;27.00;;;;;;10335638;28;1176845;-75
2023/07/05 16:06:15;;;;;;;2.00;1.43;;;27.20;28.50;;;;;;10376408;28;20845;-77
2023/07/05 16:11:19;;;;;;;1.63;1.53;;;27.30;28.80;;;;;;10380641;28;20315;-75
2023/07/05 16:16:22;;;;;;;1.70;1.60;;;27.20;28.70;;;;;;10377761;28;20225;-76
2023/07/05 16:21:27;;;;;;;1.60;1.50;;;27.10;28.70;;;;;;10378179;28;20240;-75
2023/07/05 16:26:30;;;;;;;1.50;1.40;;;26.90;28.90;;;;;;10376532;28;20241;-73
2023/07/05 16:31:34;;;;;;;1.60;1.50;;;26.80;29.60;;;;;;10380423;28;20226;-73
2023/07/05 16:36:38;;;;;;;1.50;1.40;;;26.70;29.60;;;;;;10376250;28;20229;-73
2023/07/05 16:41:44;;;;;;;3.13;1.40;;;26.50;29.50;;;;;;10379174;28;20249;-74
2023/07/05 16:46:47;;;;;;;1.80;1.70;;;26.50;29.60;;;;;;10384826;28;20229;-73
2023/07/05 16:51:52;;;;;;;1.50;1.40;;;26.50;29.50;;;;;;10385975;28;20283;-75
2023/07/05 16:56:56;;;;;;;1.30;1.30;;;26.50;29.80;;;;;;10381986;28;20235;-75
2023/07/05 17:02:00;;;;;;;1.57;1.47;;;26.40;29.50;;;;;;10386960;28;20701;-75
2023/07/05 17:07:06;;;;;;;1.80;1.70;;;26.40;29.40;;;;;;10384435;28;20226;-75
2023/07/05 17:12:10;;;;;;;1.70;1.60;;;26.30;29.40;;;;;;10383596;28;20236;-75
2023/07/05 17:17:15;;;;;;;2.70;1.60;;;26.20;29.60;;;;;;10383289;28;20240;-76
2023/07/05 17:22:20;;;;;;;1.87;1.77;;;26.20;29.30;;;;;;10385695;28;21189;-75
2023/07/05 17:27:23;;;;;;;1.53;1.43;;;26.20;29.30;;;;;;10384518;28;20237;-75
2023/07/05 17:32:27;;;;;;;1.60;1.50;;;26.20;29.50;;;;;;10388137;28;20965;-78
2023/07/05 17:37:34;;;;;;;1.97;1.80;;;26.20;29.70;;;;;;10384517;28;20239;-76
2023/07/05 17:42:38;;;;;;;1.83;1.73;;;26.20;29.30;;;;;;10381300;28;20232;-77
2023/07/05 17:47:42;;;;;;;1.90;1.80;;;26.30;29.40;;;;;;10381244;28;20706;-75
2023/07/05 17:52:47;;;;;;;2.20;2.10;;;26.40;28.80;;;;;;10383490;28;20871;-77
2023/07/05 17:57:53;;;;;;;2.00;1.90;;;26.40;26.90;;;;;;10382709;28;20241;-76
2023/07/05 18:02:56;;;;;;;2.40;2.20;;;26.40;27.40;;;;;;10383046;28;20217;-76
2023/07/05 18:08:00;;;;;;;2.10;2.00;;;26.40;27.30;;;;;;10393256;28;20237;-76
2023/07/05 18:13:04;;;;;;;1.97;1.87;;;26.50;27.00;;;;;;10394450;28;20257;-76
2023/07/05 18:18:09;;;;;;;2.00;1.90;;;26.60;26.90;;;;;;10396184;28;20232;-76
2023/07/05 18:23:14;;;;;;;2.73;2.20;;;26.70;26.90;;;;;;10395745;28;20217;-76
2023/07/05 18:28:18;;;;;;;2.60;2.40;;;26.70;25.20;;;;;;10395068;28;20224;-76
2023/07/05 18:33:21;;;;;;;2.73;2.53;;;26.70;25.30;;;;;;10395459;28;20608;-75
2023/07/05 18:38:28;;;;;;;3.03;2.50;;;26.70;24.80;;;;;;10396113;28;20305;-75
2023/07/05 18:43:31;;;;;;;4.13;2.70;;;26.60;24.50;;;;;;10392426;28;20314;-76
2023/07/05 18:48:35;;;;;;;2.83;2.60;;;26.50;24.50;;;;;;10397747;28;20225;-76
2023/07/05 18:53:40;;;;;;;2.47;2.33;;;26.40;24.50;;;;;;10396973;28;20252;-77
2023/07/05 18:58:46;;;;;;;2.73;2.53;;;26.30;24.30;;;;;;10407013;28;20332;-78
2023/07/05 19:03:51;;;;;;;3.10;2.43;;;26.20;24.40;;;;;;10405411;28;20244;-77
2023/07/05 19:08:56;;;;;;;3.57;2.60;;;26.10;23.70;;;;;;10413474;28;20225;-79
2023/07/05 19:13:59;;;;;;;3.87;2.37;;;25.90;23.80;;;;;;10403082;28;21230;-79
2023/07/05 19:19:04;;;;;;;2.60;2.33;;;25.70;24.00;;;;;;10401250;28;20225;-78
2023/07/05 19:24:09;;;;;;;3.50;2.17;;;25.50;24.10;;;;;;10396467;28;20344;-78
2023/07/05 19:29:12;;;;;;;2.67;2.47;;;25.30;23.70;;;;;;10399911;28;20229;-79
2023/07/05 19:34:16;;;;;;;2.47;2.27;;;25.20;24.20;;;;;;10406453;28;20721;-77
2023/07/05 19:39:21;;;;;;;2.30;2.10;;;25.10;24.40;;;;;;10406846;28;20878;-77
2023/07/05 19:44:24;;;;;;;2.50;2.20;;;25.00;24.70;;;;;;10406124;28;20571;-78
2023/07/05 19:49:27;;;;;;;2.90;2.30;;;24.90;25.20;;;;;;10404296;28;20236;-77
2023/07/05 19:54:32;;;;;;;2.53;2.10;;;24.90;25.40;;;;;;10398709;28;20309;-77
2023/07/05 19:59:35;;;;;;;1.93;1.83;;;24.80;25.40;;;;;;10401343;28;20724;-77
2023/07/05 20:04:38;;;;;;;2.50;2.30;;;24.80;25.70;;;;;;10400055;28;20237;-77
2023/07/05 20:09:43;;;;;;;2.23;2.03;;;24.80;25.70;;;;;;10401249;28;20253;-77
2023/07/05 20:14:47;;;;;;;2.47;2.27;;;24.70;25.40;;;;;;10393236;28;20325;-77
2023/07/05 20:19:50;;;;;;;2.43;2.17;;;24.70;25.60;;;;;;10399152;28;20872;-78
2023/07/05 20:24:55;;;;;;;2.50;2.30;;;24.60;25.60;;;;;;10400194;28;20313;-77
2023/07/05 20:29:58;;;;;;;2.40;2.20;;;24.50;25.30;;;;;;10399618;28;20226;-77
2023/07/05 20:35:04;;;;;;;2.40;2.20;;;24.30;25.70;;;;;;10399610;28;20714;-76
2023/07/05 20:40:11;;;;;;;2.27;2.10;;;24.20;25.80;;;;;;10400732;28;20229;-77
2023/07/05 20:45:14;;;;;;;2.30;2.10;;;24.10;26.00;;;;;;10397334;28;20261;-75
2023/07/05 20:50:18;;;;;;;2.27;2.07;;;24.00;26.30;;;;;;10395245;28;20225;-72
2023/07/05 20:55:22;;;;;;;3.37;2.30;;;23.90;26.40;;;;;;10398626;28;21048;-71
2023/07/05 21:00:28;;;;;;;2.53;2.33;;;23.70;26.30;;;;;;10394532;28;20221;-74
2023/07/05 21:05:31;;;;;;;2.53;2.20;;;23.50;26.60;;;;;;10397435;28;20230;-73
2023/07/05 21:10:45;;;;;;;2.70;2.50;;;23.30;26.80;;;;;;10399882;28;20956;-74
2023/07/05 21:15:49;;;;;;;2.40;2.30;;;23.20;26.80;;;;;;10400966;28;20221;-74
2023/07/05 21:20:52;;;;;;;3.83;2.43;;;23.10;26.80;;;;;;10399383;28;20225;-74
2023/07/05 21:25:58;;;;;;;2.37;2.20;;;22.90;26.50;;;;;;10406806;28;20232;-74
2023/07/05 21:31:05;;;;;;;2.60;2.40;;;22.60;27.00;;;;;;10402193;28;20237;-74
2023/07/05 21:36:10;;;;;;;2.40;2.20;;;22.30;26.90;;;;;;10404906;28;20291;-75
2023/07/05 21:41:16;;;;;;;2.70;2.50;;;22.10;27.20;;;;;;10406375;28;20275;-74
2023/07/05 21:46:19;;;;;;;2.70;2.50;;;21.90;27.40;;;;;;10406313;28;20229;-75
2023/07/05 21:51:23;;;;;;;2.47;2.27;;;21.70;27.40;;;;;;10406538;28;20776;-72
2023/07/05 21:56:29;;;;;;;2.30;2.10;;;21.70;27.70;;;;;;10406627;28;20333;-74
2023/07/05 22:01:32;;;;;;;2.40;2.20;;;21.60;27.70;;;;;;10403909;28;20307;-75
2023/07/05 22:06:35;;;;;;;2.40;2.20;;;21.60;27.70;;;;;;10402768;28;20268;-75
2023/07/05 22:11:41;;;;;;;2.40;2.20;;;21.50;27.80;;;;;;10406381;28;20661;-75
2023/07/05 22:16:44;;;;;;;2.73;2.53;;;21.50;27.80;;;;;;10406387;28;20229;-74
2023/07/05 22:21:47;;;;;;;2.80;2.60;;;21.60;27.80;;;;;;10405932;28;20229;-73
2023/07/05 22:26:54;;;;;;;3.60;2.10;;;21.50;27.70;;;;;;10406827;28;20628;-73
2023/07/05 22:31:57;;;;;;;2.40;2.20;;;21.40;27.70;;;;;;10403839;28;20237;-74
2023/07/05 22:37:01;;;;;;;2.50;2.30;;;21.20;27.60;;;;;;10406326;28;20236;-74
2023/07/05 22:42:06;;;;;;;2.43;2.10;;;21.00;28.00;;;;;;10406082;28;20740;-73
2023/07/05 22:47:10;;;;;;;2.80;2.10;;;20.90;28.40;;;;;;10400374;28;20229;-74
2023/07/05 22:52:13;;;;;;;2.37;2.20;;;20.80;28.30;;;;;;10404791;28;20240;-73
2023/07/05 22:57:18;;;;;;;2.70;2.50;;;20.80;28.40;;;;;;10405336;28;20245;-72
2023/07/05 23:02:22;;;;;;;2.40;2.20;;;20.70;28.40;;;;;;10404740;28;20300;-75
2023/07/05 23:07:26;;;;;;;2.63;2.43;;;20.50;28.40;;;;;;10404754;28;20240;-74
2023/07/05 23:12:31;;;;;;;3.73;2.50;;;20.40;28.80;;;;;;10405118;28;20261;-74
2023/07/05 23:17:35;;;;;;;3.23;2.30;;;20.30;29.20;;;;;;10404707;28;20232;-74
2023/07/05 23:22:40;;;;;;;2.63;1.93;;;20.30;29.20;;;;;;10403228;28;20608;-74
2023/07/05 23:27:44;;;;;;;2.93;2.70;;;20.30;29.20;;;;;;10405002;28;20230;-74
2023/07/05 23:32:48;;;;;;;3.37;2.50;;;20.10;29.10;;;;;;10403090;28;20230;-73
2023/07/05 23:37:52;;;;;;;2.40;2.20;;;19.90;29.10;;;;;;10403658;28;20701;-73
2023/07/05 23:42:58;;;;;;;2.50;2.30;;;19.70;29.30;;;;;;10402352;28;20235;-74
2023/07/05 23:48:01;;;;;;;3.80;2.17;;;19.60;29.70;;;;;;10402334;28;20587;-74
2023/07/05 23:53:05;;;;;;;3.07;2.37;;;19.60;29.60;;;;;;10402387;28;20988;-74
2023/07/05 23:58:09;;;;;;;2.50;2.30;;;19.50;29.80;;;;;;10403551;28;20710;-74
